Chihuahua, México

8:23 PM MDT en Agosto 20, 2014 (GMT -0600)
Gen Div P A Roberto Fierro | Change Station
CLOSE
Current Station
Aeropuerto
Location: Chihuahua,
Altura: 4462 ft
Estaciones meteorológicas cercanas

Alt 4462 ft 28.70 °N, 105.96 °W | Updated 43 minutes ago

Mostly Cloudy
Muy nublado
81 ° F
Sensación térmica 80 ° F
N
6
Viento Variable Viento desde Norte

Hoy
Alta -- | Baja -- ° F
--% Posibilidad de precipitaciones
Ayer
Alta -- | Baja -- ° F
Precip. -- pul
6:35 AM 7:38 PM
Creciente menguante, 17% visible
Presión 30.03 pul
Visibilidad 10.0 Millas
Nubes Baja 3000 ft
Nubes dispersas 8000 ft
Muy nublado 20000 ft
Índice de calor 80 ° F
Punto de rocío 54 ° F
Humedad 39%
Precipitaciones 0.00 pul
Espesor de la nieve No disponible.
UV 0 de una escala de 12
Polen No disponible.
Calidad del aire No disponible.
Flu Activity No disponible.
METAR MMCU 210140Z 36005KT 10SM FEW030TCU SCT080 BKN200 27/12 A3003 RMK 8/272 DSNT CB NE E W

More Conditions Fewer Conditions

Presión 30.03 pul
Visibilidad 10.0 Millas
Nubes Baja 3000 ft
Nubes dispersas 8000 ft
Muy nublado 20000 ft
Índice de calor 80 ° F
Punto de rocío 54 ° F
Humedad 39%
Precipitaciones 0.00 pul
Espesor de la nieve No disponible.
UV 0 de una escala de 12
Polen No disponible.
Calidad del aire No disponible.
Flu Activity No disponible.
METAR MMCU 210140Z 36005KT 10SM FEW030TCU SCT080 BKN200 27/12 A3003 RMK 8/272 DSNT CB NE E W

More Conditions Fewer Conditions

10-Day Weather Forecast

Almanac

Astronomía

Aug. 20, 2014 Salida Puesta
Hora real 6:35 AM MDT 7:38 PM MDT
Crepúsculo civil 6:11 AM MDT 8:02 PM MDT
Crepúsculo náutico 5:42 AM MDT 8:31 PM MDT
Crepúsculo astronómico 5:12 AM MDT 9:01 PM MDT
Luna 2:26 AM MDT (8/20) 4:17 PM MDT (8/20)
Horas de luz 13h 51m
Horas de luz
13h 02m
Tomorrow will be 1m 33s shorter.
Creciente menguante, 17% of the Moon is Illuminated
Hoy
Creciente menguante
Ago 25
Nueva
Sep 2
Cuarto creciente
Sep 8
Luna llena
Sep 15
Cuarto menguante

Extremos de hoy

Máximos del país Bajas del país

Community

WunderPhotos

Upload Photos

1,745,851 ¡fotos cargadas!

WunderBlogs® & News

By Dr. Jeff Masters
Director of Meteorology, Weather Underground
By Kari Strenfel
Meteorologist, Weather Underground
By Christopher C. Burt
Weather Historian, Weather Underground
August 20, 2014
August 20, 2014
August 20, 2014

Nearby

Calidad del aire

Not available.

Grosos de nieve

Not available.

Actividad de terremotos

Ciudad Distance Mag. Tiempo y dato
No hay informes recientes de la actividad sísmica.
Magnitud mínima muestra es 2,5.

Temperaturas de aguas costeras

Lugar Temperatura
Sin partes meteorológicos de las estaciones

Estaciones meteorológicas cercanas